Main page
METAR-TAF:

METAR-TAF

Airports :

Kassel Airport

Kassel, Germany

latitude: 51-24N, longitude: 009-23E, elevation: 277 m

Current weather observation

The report was made 41 minutes ago, at 12:50 UTC
Wind 7 kt from the South/Southwest, varying between South and Southwest
Temperature 3°C
Humidity 87%
Pressure 1018 hPa
Visibility 10 km or more
Few clouds at a height of 800 ft
Broken clouds at a height of 1100 ft
Broken clouds at a height of 4000 ft

METAR: EDVK 171250Z 20007KT 170V230 9999 FEW008 BKN011 BKN040 03/01 Q1018

Time: 14:31 (13:31 UTC)

Forecast

The report was made 2 hours and 31 minutes ago, at 11:00 UTC
Forecast valid from 17 at 12 UTC to 17 at 21 UTC
Wind 7 kt from the South
Visibility: 9000 m
Overcast at a height of 1200 ft
Temporary
from 17 at 12 UTC to 17 at 18 UTC
Visibility: 3000 m
Broken clouds at a height of 500 ft
light rain, drizzle

TAF: EDVK 171100Z 1712/1721 18007KT 9000 OVC012 TEMPO 1712/1718 3000 -RADZ BKN005

Weather observations and forecasts of more than 4000 airports (METAR and TAF reports).

The available stations are represented by yellow and red dots on the map.

Hover mouse over dot to see the name of the station.

Then click to see weather observations and forecasts.

To change the map : click on the green buttons with a black cross to zoom in, on the green button with a dash to zoom out, or on the green arrows for adjacent maps.


METAR-TAF: